This is the latest recevied weather packets stored in our database for station/object KC3QJO. If no packets are shown the sender has not sent any weather packets the latest 10 day(s).
| Time | Temp. | Humidity | Pressure | Rain* | Wind** | Luminosity | Snow |
|---|---|---|---|---|---|---|---|
| 1777932354 | 20.56° C | 35% | 1007.7 hPa | 0 mm | - | 258 W/m² | - |
| 1777930850 | 21.11° C | 35% | 1007.9 hPa | 0 mm | - | 332 W/m² | - |
| 1777930282 | 21.11° C | 35% | 1007.9 hPa | 0 mm | - | 353 W/m² | - |
| 1777926351 | 21.67° C | 34% | 1008.3 hPa | 0 mm | - | 554 W/m² | - |
| 1777925153 | 20.56° C | 35% | 1008.3 hPa | 0 mm | - | 599 W/m² | - |
| 1777923353 | 21.11° C | 35% | 1008.5 hPa | 0 mm | - | 671 W/m² | - |
| 1777922451 | 20.56° C | 35% | 1008.7 hPa | 0 mm | - | 700 W/m² | - |
| 1777919754 | 20.56° C | 36% | 1009.1 hPa | 0 mm | - | 742 W/m² | - |
| 1777918853 | 19.44° C | 36% | 1009.2 hPa | 0 mm | - | 763 W/m² | - |
| 1777916451 | 19.44° C | 36% | 1010 hPa | 0 mm | - | 802 W/m² | - |
| 1777916153 | 18.89° C | 37% | 1009.9 hPa | 0 mm | - | 798 W/m² | - |
| 1777915251 | 19.44° C | 38% | 1010.1 hPa | 0 mm | - | 807 W/m² | - |
| 1777914957 | 19.44° C | 39% | 1010.1 hPa | 0 mm | - | 809 W/m² | - |
| 1777914054 | 18.89° C | 37% | 1010.3 hPa | 0 mm | - | 810 W/m² | - |
| 1777912850 | 18.33° C | 37% | 1010.6 hPa | 0 mm | - | 807 W/m² | - |
| 1777911356 | 18.89° C | 35% | 1010.8 hPa | 0 mm | - | 796 W/m² | - |
| 1777910151 | 17.78° C | 34% | 1011.3 hPa | 0 mm | - | 780 W/m² | - |
| 1777909250 | 17.78° C | 34% | 1011.4 hPa | 0 mm | - | 768 W/m² | - |
| 1777906855 | 17.22° C | 36% | 1011.9 hPa | 0 mm | - | 772 W/m² | - |
| 1777906253 | 16.67° C | 37% | 1012 hPa | 0 mm | - | 714 W/m² | - |
| 1777905959 | 16.67° C | 38% | 1012 hPa | 0 mm | - | 694 W/m² | - |
| 1777904451 | 15° C | 42% | 1012.1 hPa | 0 mm | - | 645 W/m² | - |
| 1777900251 | 11.67° C | 47% | 1012.4 hPa | 0 mm | - | 457 W/m² | - |
| 1777899351 | 10.56° C | 52% | 1012.7 hPa | 0 mm | - | 478 W/m² | - |
| 1777899054 | 10.56° C | 51% | 1012.8 hPa | 0 mm | - | 172 W/m² | - |
* Rain latest hour (hover to see other rain measurements)
** Current wind speed in m/s (hover to see current wind gust speed)